KIRK/IRK METAR and TAF weather

Enter ICAO airport designator
Station Type Date Time Source
KIRK METAR 2022/01/26 12:55 UTC NOAA

KIRK 261255Z AUTO 17003KT 10SM CLR M20/M22 A3050 RMK AO2 SLP356 I1000 T12001217


Station Type Date Time Source
KIRK Decoded METAR 2022/01/26 12:55 UTC NOAA

KIRKSVILLE REGIONAL AIRPORT , MO, United States (KIRK) 40-06N 092-33W 293M
Jan 26, 2022 - 07:55 AM EST / 2022.01.26 1255 UTC
Wind: from the S (170 degrees) at 3 MPH (3 KT):0
Visibility: 10 mile(s):0
Sky conditions: clear
Temperature: -4.0 F (-20.0 C)
Dew Point: -7.1 F (-21.7 C)
Relative Humidity: 86%
Pressure (altimeter): 30.5 in. Hg (1032 hPa)
ob: KIRK 261255Z AUTO 17003KT 10SM CLR M20/M22 A3050 RMK AO2 SLP356 I1000 T12001217
cycle: 13

Station Type Date Time Source
KIRK TAF UTC NOAA

Error!

Example: see airport list